Time;durP1;ratioP1;P1;durP2;ratioP2;P2;SDS_P1;SDS_P2;PMS_P1;PMS_P2;Temp;Humidity;BMP_temperature;BMP_pressure;BME280_temperature;BME280_humidity;BME280_pressure;Samples;Min_cycle;Max_cycle;Signal;HPM_P1;HPM_P2
2023/10/12 00:00:25;;;;;;;;;6.67;6.67;;;;;21.49;46.75;101014.72;5098318;27;45693;-71
2023/10/12 00:02:53;;;;;;;;;5.33;4.67;;;;;21.44;46.65;100996.41;5104711;27;45465;-72
2023/10/12 00:05:19;;;;;;;;;4.33;4.33;;;;;21.49;47.10;101010.13;5106443;27;45671;-71
2023/10/12 00:07:49;;;;;;;;;5.00;5.00;;;;;21.46;47.23;100996.19;5106470;27;45541;-71
2023/10/12 00:12:44;;;;;;;;;6.33;4.00;;;;;21.43;47.29;100991.22;5105135;27;45260;-71
2023/10/12 00:17:48;;;;;;;;;6.67;6.67;;;;;21.06;47.22;100927.75;5109418;27;45346;-71
2023/10/12 00:22:54;;;;;;;;;5.33;5.00;;;;;21.46;47.22;100986.22;5097258;27;45446;-71
2023/10/12 00:25:20;;;;;;;;;6.00;5.67;;;;;21.51;47.42;100999.09;5096902;27;45862;-71
2023/10/12 00:27:47;;;;;;;;;5.67;5.67;;;;;21.50;47.52;100998.28;5094095;27;45455;-72
2023/10/12 00:30:14;;;;;;;;;6.33;5.00;;;;;21.52;47.27;100996.19;5097040;27;47767;-71
2023/10/12 00:32:41;;;;;;;;;9.00;6.00;;;;;21.53;47.35;100991.59;5097109;27;45502;-71
2023/10/12 00:35:11;;;;;;;;;6.67;6.33;;;;;21.51;47.33;100975.59;5097168;27;45411;-70
2023/10/12 00:37:37;;;;;;;;;7.00;5.67;;;;;21.51;47.22;100981.00;5097237;27;45499;-70
2023/10/12 00:40:23;;;;;;;;;6.00;6.00;;;;;21.46;47.46;100978.09;5104466;27;46636;-72
2023/10/12 00:42:51;;;;;;;;;6.67;6.00;;;;;21.22;47.75;100933.56;5097221;27;45387;-71
2023/10/12 00:45:19;;;;;;;;;6.50;4.00;;;;;21.48;47.59;100991.41;5097252;27;45280;-72
2023/10/12 00:47:45;;;;;;;;;6.00;5.00;;;;;21.21;47.84;100936.44;5105179;27;45519;-71
2023/10/12 00:50:12;;;;;;;;;4.00;4.00;;;;;21.48;47.80;100992.25;5096814;27;45330;-70
2023/10/12 00:52:57;;;;;;;;;6.00;6.00;;;;;21.45;47.32;100981.00;5099459;27;45362;-71
2023/10/12 00:55:41;;;;;;;;;5.00;3.00;;;;;21.51;47.81;100996.41;5098732;27;45299;-71
2023/10/12 00:58:08;;;;;;;;;5.67;4.33;;;;;21.16;47.57;100933.56;5097010;27;45226;-71
2023/10/12 01:00:35;;;;;;;;;7.67;5.67;;;;;21.48;47.53;100986.84;5105308;27;45869;-71
2023/10/12 01:03:07;;;;;;;;;4.67;4.00;;;;;21.36;47.70;100947.91;5096775;27;45250;-70
2023/10/12 01:05:35;;;;;;;;;6.67;5.33;;;;;21.16;47.70;100915.47;5096852;27;45375;-70
2023/10/12 01:08:04;;;;;;;;;7.67;5.33;;;;;21.54;47.72;100980.56;5104750;27;45585;-71
2023/10/12 01:10:32;;;;;;;;;4.33;4.33;;;;;21.54;47.83;100974.31;5106209;27;45677;-71
2023/10/12 01:13:00;;;;;;;;;5.33;5.33;;;;;21.51;47.71;100975.59;5100073;27;45377;-71
2023/10/12 01:15:29;;;;;;;;;10.67;8.00;;;;;21.42;47.81;100954.34;5116824;27;45259;-71
2023/10/12 01:17:56;;;;;;;;;6.67;6.67;;;;;21.44;48.02;100963.13;5112565;27;45402;-70
2023/10/12 01:20:32;;;;;;;;;9.00;6.00;;;;;21.30;48.23;100956.06;5111577;27;46929;-71
2023/10/12 01:22:57;;;;;;;;;9.00;7.00;;;;;21.19;48.30;100952.88;5108512;27;45426;-70
2023/10/12 01:25:28;;;;;;;;;9.33;8.67;;;;;21.26;48.38;100966.47;5116468;27;45350;-75
2023/10/12 01:27:54;;;;;;;;;9.67;6.33;;;;;21.20;48.59;100959.97;5100647;27;45373;-70
2023/10/12 01:30:23;;;;;;;;;8.67;8.00;;;;;21.16;49.10;100955.19;5115966;27;45517;-70
2023/10/12 01:32:59;;;;;;;;;9.00;8.67;;;;;21.06;48.59;100957.47;5116577;27;45220;-71
2023/10/12 01:35:33;;;;;;;;;8.67;6.33;;;;;21.16;48.77;100968.69;5107691;27;45646;-70
2023/10/12 01:38:03;;;;;;;;;8.33;7.00;;;;;21.14;48.41;100968.91;5099946;27;45457;-71
2023/10/12 01:40:52;;;;;;;;;8.33;6.33;;;;;20.88;48.71;100926.50;5107665;27;47964;-74
2023/10/12 01:43:18;;;;;;;;;8.00;7.33;;;;;21.12;48.60;100967.47;5118218;27;45327;-71
2023/10/12 01:45:45;;;;;;;;;6.00;5.00;;;;;21.11;48.86;100965.78;5109296;27;46769;-70
2023/10/12 01:48:22;;;;;;;;;8.00;6.33;;;;;21.16;48.80;100966.84;5105431;27;45356;-71
2023/10/12 01:50:48;;;;;;;;;7.33;7.00;;;;;21.19;48.67;100971.00;5100484;27;46480;-71
2023/10/12 01:55:47;;;;;;;;;7.33;5.67;;;;;20.90;48.92;100924.41;5099700;27;45377;-70
2023/10/12 01:58:15;;;;;;;;;7.33;6.33;;;;;21.20;48.72;100967.25;5100012;27;45353;-70
2023/10/12 02:00:48;;;;;;;;;2.00;2.00;;;;;21.13;48.64;100961.84;5107862;27;46774;-70
2023/10/12 02:06:00;;;;;;;;;5.67;5.33;;;;;20.86;49.01;100917.75;5086802;27;45315;-70
2023/10/12 02:08:32;;;;;;;;;6.00;6.00;;;;;21.16;48.95;100960.59;5104029;27;45488;-71
2023/10/12 02:11:11;;;;;;;;;7.00;6.00;;;;;21.01;48.98;100941.03;5107491;27;46558;-71
2023/10/12 02:13:41;;;;;;;;;5.00;4.67;;;;;21.21;48.49;100975.13;5098891;27;45335;-72
2023/10/12 02:16:10;;;;;;;;;3.67;3.67;;;;;21.23;48.92;100967.69;5103387;27;45386;-71
2023/10/12 02:18:35;;;;;;;;;6.33;6.00;;;;;21.16;49.04;100955.19;5111178;27;45358;-70
2023/10/12 02:23:54;;;;;;;;;6.00;6.00;;;;;21.25;48.63;100975.63;5099130;27;45464;-71
2023/10/12 02:29:11;;;;;;;;;5.33;5.33;;;;;21.25;48.81;100972.91;5099516;27;45511;-72
2023/10/12 02:34:19;;;;;;;;;9.00;5.00;;;;;21.22;48.77;100967.84;5103527;27;45489;-71
2023/10/12 02:39:53;;;;;;;;;5.67;5.67;;;;;21.25;48.76;100968.34;5073492;28;46300;-71
2023/10/12 02:42:38;;;;;;;;;6.33;5.00;;;;;21.19;48.91;100955.59;5094157;27;46669;-71
2023/10/12 02:45:08;;;;;;;;;5.00;5.00;;;;;21.18;48.92;100970.16;5098561;27;45545;-71
2023/10/12 02:47:34;;;;;;;;;7.67;7.67;;;;;21.10;48.93;100956.03;5098694;27;45568;-72
2023/10/12 02:50:01;;;;;;;;;6.67;5.67;;;;;21.30;48.93;100989.34;5115685;27;45580;-71
2023/10/12 02:52:31;;;;;;;;;8.67;7.00;;;;;21.24;49.12;100979.34;5098556;27;45853;-70
2023/10/12 02:54:57;;;;;;;;;6.67;5.00;;;;;21.22;49.32;100960.59;5098361;27;45702;-71
2023/10/12 02:57:28;;;;;;;;;6.00;3.67;;;;;21.23;49.10;100951.47;5093343;27;45384;-71
2023/10/12 03:00:16;;;;;;;;;4.67;4.67;;;;;20.86;49.23;100901.53;5109212;27;45595;-71
2023/10/12 03:02:44;;;;;;;;;7.00;6.00;;;;;21.22;49.15;100959.75;5106074;27;45852;-72
2023/10/12 03:05:13;;;;;;;;;6.67;6.67;;;;;21.24;49.09;100963.97;5098409;27;45487;-71
2023/10/12 03:07:39;;;;;;;;;7.00;5.33;;;;;21.26;49.27;100961.06;5098642;27;45451;-71
2023/10/12 03:10:07;;;;;;;;;8.00;7.00;;;;;21.28;49.49;100958.97;5098097;27;45544;-71
2023/10/12 03:12:35;;;;;;;;;9.67;6.67;;;;;21.27;49.47;100960.00;5103256;27;46888;-70
2023/10/12 03:15:12;;;;;;;;;3.67;3.67;;;;;20.96;49.63;100912.75;5118175;27;45474;-71
2023/10/12 03:17:42;;;;;;;;;4.33;3.33;;;;;21.16;49.73;100941.66;5104100;27;45469;-72
2023/10/12 03:20:22;;;;;;;;;5.33;5.33;;;;;21.15;49.71;100948.13;5108192;27;45447;-71
2023/10/12 03:22:54;;;;;;;;;7.33;7.33;;;;;21.24;49.66;100949.63;5118495;27;46755;-70
2023/10/12 03:25:20;;;;;;;;;6.00;4.33;;;;;21.29;49.77;100966.03;5088012;27;46292;-70
2023/10/12 03:27:53;;;;;;;;;7.67;5.67;;;;;21.33;49.59;100969.97;5098624;27;45276;-70
2023/10/12 03:30:24;;;;;;;;;12.00;7.67;;;;;21.36;49.52;100961.44;5098340;27;45558;-71
2023/10/12 03:32:49;;;;;;;;;7.33;7.33;;;;;21.38;49.86;100977.47;5096655;27;46600;-71
2023/10/12 03:35:23;;;;;;;;;7.00;7.00;;;;;21.23;49.86;100945.22;5097361;27;45437;-71
2023/10/12 03:37:52;;;;;;;;;5.67;5.67;;;;;21.40;49.68;100976.22;5104974;27;45252;-69
2023/10/12 03:43:10;;;;;;;;;10.00;8.00;;;;;21.41;49.48;100980.56;5114464;27;45779;-71
2023/10/12 03:45:39;;;;;;;;;5.00;5.00;;;;;21.19;49.73;100941.25;5109414;27;45439;-70
2023/10/12 03:48:47;;;;;;;;;6.67;6.67;;;;;21.40;49.56;100981.63;5109076;27;45290;-71
2023/10/12 03:53:26;;;;;;;;;7.00;7.00;;;;;21.42;49.66;100963.31;5116220;27;45528;-71
2023/10/12 03:55:56;;;;;;;;;8.33;6.33;;;;;21.40;49.72;100965.38;5102805;27;45597;-70
2023/10/12 03:58:23;;;;;;;;;6.00;6.00;;;;;21.40;49.91;100956.44;5107944;27;45474;-70
2023/10/12 04:01:06;;;;;;;;;8.33;6.33;;;;;21.41;49.72;100963.50;5118193;27;45513;-71
2023/10/12 04:03:40;;;;;;;;;6.67;6.67;;;;;21.35;49.80;100965.19;5109074;27;47182;-69
2023/10/12 04:06:22;;;;;;;;;7.67;5.67;;;;;21.14;49.92;100927.53;5108833;27;45444;-70
2023/10/12 04:08:58;;;;;;;;;7.00;6.00;;;;;21.28;49.89;100948.16;5097493;27;45558;-71
2023/10/12 04:14:21;;;;;;;;;8.33;7.00;;;;;21.32;50.22;100960.22;5109311;27;45506;-71
2023/10/12 04:16:56;;;;;;;;;10.00;8.00;;;;;21.24;50.41;100949.63;5097864;27;45437;-71
2023/10/12 04:19:32;;;;;;;;;8.00;5.67;;;;;21.10;50.57;100935.22;5097222;27;45348;-71
2023/10/12 04:24:55;;;;;;;;;5.00;5.00;;;;;21.22;50.31;100957.03;5097776;27;46420;-71
2023/10/12 04:27:47;;;;;;;;;7.33;5.33;;;;;21.16;50.16;100958.72;5087468;27;46012;-74
2023/10/12 04:30:20;;;;;;;;;6.67;6.67;;;;;21.29;50.24;100971.44;5096978;27;45521;-71
2023/10/12 04:33:11;;;;;;;;;9.00;5.33;;;;;21.35;50.24;100980.59;5097368;27;45267;-71
2023/10/12 04:38:22;;;;;;;;;7.33;5.33;;;;;21.30;50.34;100983.94;5102257;27;45401;-69
2023/10/12 04:43:37;;;;;;;;;9.33;8.33;;;;;21.27;50.42;100978.09;5115709;27;45619;-71
2023/10/12 04:48:46;;;;;;;;;8.67;8.33;;;;;21.21;50.72;100975.13;5100181;27;45477;-71
2023/10/12 04:51:21;;;;;;;;;4.67;4.33;;;;;21.25;50.93;100987.25;5106282;27;45407;-71
2023/10/12 04:53:57;;;;;;;;;4.00;4.00;;;;;21.08;50.91;100963.50;5103492;27;45422;-70
2023/10/12 04:56:26;;;;;;;;;7.00;6.67;;;;;21.17;51.05;100989.28;5112080;27;46421;-72
2023/10/12 04:59:14;;;;;;;;;7.00;6.67;;;;;20.92;51.18;100943.13;5109896;27;45218;-71
2023/10/12 05:04:35;;;;;;;;;6.67;6.67;;;;;21.07;51.53;100973.50;5120298;27;45482;-70
2023/10/12 05:09:38;;;;;;;;;6.33;6.33;;;;;21.12;51.55;100978.28;5099880;27;45741;-70
2023/10/12 05:12:04;;;;;;;;;6.00;6.00;;;;;21.17;51.43;100981.19;5108887;27;45667;-72
2023/10/12 05:14:30;;;;;;;;;7.33;7.33;;;;;21.17;51.51;100984.72;5090461;27;45452;-70
2023/10/12 05:16:56;;;;;;;;;6.67;5.67;;;;;21.07;51.46;100962.69;5116619;27;45905;-71
2023/10/12 05:19:21;;;;;;;;;7.33;7.33;;;;;21.02;51.72;100953.50;5098305;27;45279;-70
2023/10/12 05:21:47;;;;;;;;;5.00;5.00;;;;;21.02;51.82;100956.22;5100141;27;45208;-71
2023/10/12 05:24:12;;;;;;;;;9.00;7.00;;;;;21.01;51.83;100973.47;5099901;27;45543;-70
2023/10/12 05:26:38;;;;;;;;;10.67;7.33;;;;;21.08;51.91;100995.94;5094834;27;47403;-70
2023/10/12 05:29:52;;;;;;;;;8.00;6.33;;;;;20.93;51.72;100971.81;5111875;27;45268;-71
2023/10/12 05:37:08;;;;;;;;;8.67;6.00;;;;;20.96;52.32;100968.69;5105344;27;45648;-72
2023/10/12 05:39:36;;;;;;;;;7.33;6.33;;;;;20.95;52.44;100970.56;5102191;27;45204;-71
2023/10/12 05:42:07;;;;;;;;;7.67;6.33;;;;;20.79;52.23;100952.03;5105009;27;45245;-71
2023/10/12 05:44:33;;;;;;;;;8.33;7.00;;;;;20.90;52.24;100978.47;5117568;27;45391;-72
2023/10/12 05:47:00;;;;;;;;;8.33;8.00;;;;;20.89;52.62;100976.81;5106146;27;45533;-71
2023/10/12 05:49:25;;;;;;;;;9.00;8.00;;;;;20.49;52.58;100921.03;5106816;27;45454;-71
2023/10/12 05:51:51;;;;;;;;;7.00;6.67;;;;;20.79;52.84;100992.56;5108034;27;45428;-70
2023/10/12 05:54:20;;;;;;;;;11.00;9.00;;;;;20.76;53.06;101003.78;5099434;27;45424;-71
2023/10/12 05:56:45;;;;;;;;;6.67;6.67;;;;;20.66;53.13;100989.84;5108197;27;45782;-71
2023/10/12 05:59:14;;;;;;;;;7.25;7.25;;;;;20.76;53.14;101009.19;5105716;27;45481;-69
2023/10/12 06:01:48;;;;;;;;;9.00;6.00;;;;;20.59;53.19;100970.06;5089396;27;45288;-72
2023/10/12 06:04:15;;;;;;;;;8.33;7.67;;;;;20.86;53.21;101028.56;5099318;27;45513;-72
2023/10/12 06:06:41;;;;;;;;;7.33;7.33;;;;;20.59;53.23;100981.72;5099604;27;45693;-70
2023/10/12 06:09:23;;;;;;;;;11.00;8.00;;;;;20.85;53.26;101020.66;5098610;27;45400;-70
2023/10/12 06:11:51;;;;;;;;;11.67;9.00;;;;;20.68;53.36;101003.16;5099196;27;45258;-74
2023/10/12 06:14:20;;;;;;;;;9.67;8.00;;;;;20.83;53.17;101023.56;5108423;27;45563;-70
2023/10/12 06:16:58;;;;;;;;;11.33;9.00;;;;;20.93;53.28;101044.78;5106942;27;46640;-70
2023/10/12 06:19:25;;;;;;;;;8.33;8.00;;;;;20.95;53.01;101057.06;5080302;27;45736;-70
2023/10/12 06:21:51;;;;;;;;;15.33;12.33;;;;;20.58;53.09;100992.72;5099086;27;45354;-72
2023/10/12 06:24:21;;;;;;;;;11.67;9.00;;;;;20.95;53.19;101051.66;5098825;27;45320;-77
2023/10/12 06:26:48;;;;;;;;;9.00;9.00;;;;;21.04;53.41;101070.41;5113396;27;45862;-70
2023/10/12 06:29:24;;;;;;;;;15.00;13.67;;;;;21.05;53.27;101109.91;5102214;27;45498;-71
2023/10/12 06:31:52;;;;;;;;;7.33;7.33;;;;;20.51;53.86;101037.81;5113750;27;45324;-71
2023/10/12 06:34:19;;;;;;;;;8.67;7.33;;;;;20.99;54.85;101108.84;5109621;27;45410;-70
2023/10/12 06:36:45;;;;;;;;;8.00;7.00;;;;;20.77;54.97;101056.78;5098225;27;46602;-69
2023/10/12 06:44:27;;;;;;;;;13.00;9.00;;;;;20.92;56.34;101084.50;5105973;27;45587;-70
2023/10/12 06:46:54;;;;;;;;;11.00;8.33;;;;;20.89;57.12;101082.22;5095537;27;47242;-70
2023/10/12 06:49:22;;;;;;;;;10.00;10.00;;;;;20.68;57.93;101057.19;5114139;27;45351;-71
2023/10/12 06:52:00;;;;;;;;;10.33;10.33;;;;;20.77;58.36;101081.13;5098315;27;45218;-71
2023/10/12 06:57:31;;;;;;;;;11.33;10.00;;;;;20.96;58.49;101131.69;5103057;27;45581;-71
2023/10/12 07:02:29;;;;;;;;;14.33;10.67;;;;;20.70;59.81;101122.66;5100274;27;45316;-71
2023/10/12 07:04:55;;;;;;;;;10.00;8.00;;;;;20.92;60.14;101133.16;5098153;27;45446;-70
2023/10/12 07:07:29;;;;;;;;;8.67;8.67;;;;;20.53;60.97;101062.75;5103953;27;46532;-71
2023/10/12 07:12:48;;;;;;;;;10.33;9.00;;;;;20.68;61.84;101122.03;5106598;27;45450;-70
2023/10/12 07:15:20;;;;;;;;;16.00;11.33;;;;;20.69;62.82;101118.31;5098116;27;45551;-70
2023/10/12 07:17:49;;;;;;;;;11.67;10.67;;;;;20.59;63.06;101119.50;5104654;27;45636;-71
2023/10/12 07:23:33;;;;;;;;;17.67;13.33;;;;;20.70;63.62;101123.50;5116164;27;45507;-71
2023/10/12 07:25:51;;;;;;;;;11.00;11.00;;;;;20.66;63.36;101122.25;5100123;27;45608;-70
2023/10/12 07:28:32;;;;;;;;;11.00;9.33;;;;;20.42;63.20;101082.19;5090463;27;46765;-70
2023/10/12 07:33:52;;;;;;;;;12.00;12.00;;;;;20.69;63.66;101138.03;5111518;27;45465;-70
2023/10/12 07:36:18;;;;;;;;;14.67;10.00;;;;;20.70;63.23;101133.47;5108829;27;45524;-68
2023/10/12 07:39:14;;;;;;;;;11.67;10.33;;;;;20.63;63.52;101117.25;5110910;27;45639;-71
2023/10/12 07:41:41;;;;;;;;;16.33;13.00;;;;;20.62;64.02;101137.16;5097026;27;45375;-70
2023/10/12 07:44:07;;;;;;;;;11.67;11.67;;;;;20.57;64.08;101120.72;5098283;27;45174;-70
2023/10/12 07:46:35;;;;;;;;;12.33;11.33;;;;;20.65;64.00;101134.91;5113712;27;45636;-71
2023/10/12 07:49:22;;;;;;;;;13.33;12.67;;;;;20.77;63.58;101135.16;5105349;27;46455;-70
2023/10/12 07:57:14;;;;;;;;;14.00;11.33;;;;;20.85;64.14;101136.88;5116898;27;45170;-71
2023/10/12 07:59:49;;;;;;;;;12.00;11.67;;;;;20.60;63.60;101087.91;5089983;27;47057;-69
2023/10/12 08:02:15;;;;;;;;;17.33;13.67;;;;;20.95;63.20;101140.84;5099972;27;45444;-72
2023/10/12 08:04:57;;;;;;;;;12.67;11.67;;;;;20.87;63.67;101134.81;5113439;27;45373;-73
2023/10/12 08:07:26;;;;;;;;;17.67;14.67;;;;;20.83;63.35;101139.78;5109683;27;45154;-69
2023/10/12 08:09:53;;;;;;;;;16.00;13.00;;;;;20.83;63.55;101142.47;5114468;27;45751;-70
2023/10/12 08:12:23;;;;;;;;;17.00;13.33;;;;;20.46;63.33;101072.69;5116800;27;45472;-71
2023/10/12 08:14:53;;;;;;;;;10.67;8.67;;;;;20.97;62.89;101146.06;5107926;27;45637;-69
2023/10/12 08:17:25;;;;;;;;;14.67;11.00;;;;;20.47;62.94;101060.84;5101710;27;45490;-69
2023/10/12 08:19:57;;;;;;;;;15.33;12.33;;;;;20.98;62.57;101144.19;5106547;27;46158;-69
2023/10/12 08:22:31;;;;;;;;;9.67;8.67;;;;;20.94;62.60;101147.28;5112061;27;45158;-70
2023/10/12 08:24:59;;;;;;;;;10.00;9.00;;;;;20.96;62.67;101138.97;5105380;27;45560;-71
2023/10/12 08:27:25;;;;;;;;;15.00;12.67;;;;;20.93;62.62;101118.59;5101928;27;45267;-70
2023/10/12 08:32:29;;;;;;;;;9.67;9.67;;;;;21.08;62.42;101147.34;5110064;27;45579;-70
2023/10/12 08:37:26;;;;;;;;;13.00;11.33;;;;;21.01;62.83;101114.88;5116435;27;45437;-70
2023/10/12 08:42:37;;;;;;;;;11.00;9.67;;;;;21.35;62.48;101149.09;5100051;27;45618;-71
2023/10/12 08:45:15;;;;;;;;;10.00;10.00;;;;;21.40;61.94;101152.03;5081857;27;45387;-69
2023/10/12 08:47:48;;;;;;;;;12.67;11.67;;;;;21.48;62.13;101154.56;5117586;27;45239;-70
2023/10/12 08:51:08;;;;;;;;;10.33;10.33;;;;;21.50;61.11;101146.22;5114104;27;46558;-71
2023/10/12 08:53:03;;;;;;;;;14.67;13.33;;;;;21.59;60.51;101154.97;5099513;27;45535;-70
2023/10/12 08:55:31;;;;;;;;;17.33;13.67;;;;;21.49;60.97;101129.16;5095150;27;45303;-68
2023/10/12 08:58:15;;;;;;;;;13.33;12.33;;;;;21.65;60.62;101143.34;5103413;27;45534;-69
2023/10/12 09:00:44;;;;;;;;;15.00;15.00;;;;;21.74;60.28;101139.38;5110093;27;46676;-72
2023/10/12 09:03:24;;;;;;;;;16.33;13.33;;;;;21.82;59.98;101137.31;5112200;27;45311;-69
2023/10/12 09:06:00;;;;;;;;;16.00;14.33;;;;;21.81;59.43;101123.97;5103406;27;45232;-70
2023/10/12 09:10:56;;;;;;;;;17.33;14.67;;;;;21.79;59.08;101109.81;5110872;27;46401;-70
2023/10/12 09:13:33;;;;;;;;;14.33;13.00;;;;;21.62;58.23;101089.63;5099548;27;45329;-73
2023/10/12 09:16:00;;;;;;;;;14.67;14.00;;;;;21.69;58.84;101085.06;5108357;27;45229;-71
2023/10/12 09:18:33;;;;;;;;;14.67;13.67;;;;;22.00;57.96;101120.41;5099928;27;45498;-71
2023/10/12 09:23:42;;;;;;;;;16.33;15.33;;;;;22.22;58.34;101139.16;5099714;27;45335;-70
2023/10/12 09:26:14;;;;;;;;;14.67;12.00;;;;;22.26;57.98;101140.44;5118402;27;45548;-70
2023/10/12 09:31:13;;;;;;;;;17.33;16.00;;;;;22.37;57.89;101132.47;5116303;27;45524;-71
2023/10/12 09:33:54;;;;;;;;;12.00;11.00;;;;;22.31;57.24;101116.25;5099240;27;45487;-72
2023/10/12 09:36:22;;;;;;;;;14.67;12.33;;;;;22.24;57.34;101104.59;5101745;27;45509;-70
2023/10/12 09:38:47;;;;;;;;;14.67;12.00;;;;;22.49;57.23;101124.53;5104676;27;45565;-70
2023/10/12 09:41:19;;;;;;;;;14.33;12.33;;;;;22.48;57.15;101146.44;5100538;27;46363;-72
2023/10/12 09:43:53;;;;;;;;;20.33;16.67;;;;;22.43;57.26;101136.22;5099831;27;45354;-71
2023/10/12 09:46:24;;;;;;;;;12.00;12.00;;;;;22.41;56.99;101135.59;5098767;27;46186;-73
2023/10/12 09:48:58;;;;;;;;;15.00;14.67;;;;;22.34;57.18;101129.38;5092797;27;45493;-71
2023/10/12 09:51:25;;;;;;;;;17.00;17.00;;;;;22.50;57.18;101157.88;5099493;27;46176;-71
2023/10/12 09:53:58;;;;;;;;;16.33;16.33;;;;;22.47;56.92;101151.00;5087370;27;45233;-71
2023/10/12 09:56:34;;;;;;;;;18.33;15.33;;;;;21.93;57.18;101070.03;5091297;27;45741;-71
2023/10/12 09:59:13;;;;;;;;;18.00;14.67;;;;;22.23;57.75;101119.19;5114159;27;45465;-70
2023/10/12 10:07:09;;;;;;;;;14.67;13.33;;;;;22.39;57.69;101146.63;5105066;27;45486;-71
2023/10/12 10:09:37;;;;;;;;;15.33;14.00;;;;;22.39;57.65;101124.97;5088690;27;45386;-73
2023/10/12 10:12:08;;;;;;;;;14.33;12.00;;;;;22.50;57.84;101139.75;5105989;27;46367;-70
2023/10/12 10:14:36;;;;;;;;;19.00;15.67;;;;;22.28;57.89;101122.09;5106571;27;46074;-71
2023/10/12 10:17:02;;;;;;;;;19.67;17.67;;;;;22.37;57.95;101140.59;5100745;27;45408;-70
2023/10/12 10:19:30;;;;;;;;;18.00;15.67;;;;;22.49;57.74;101140.78;5107481;27;45340;-70
2023/10/12 10:22:11;;;;;;;;;14.33;13.67;;;;;22.46;57.74;101117.66;5098723;27;45512;-72
2023/10/12 10:24:55;;;;;;;;;19.67;16.33;;;;;22.67;57.26;101130.09;5088369;27;45473;-71
2023/10/12 10:27:29;;;;;;;;;14.00;12.33;;;;;22.67;57.47;101135.53;5101527;27;45606;-70
2023/10/12 10:29:58;;;;;;;;;17.33;14.33;;;;;22.74;57.29;101136.31;5102508;27;45485;-72
2023/10/12 10:32:29;;;;;;;;;14.67;13.33;;;;;22.75;57.04;101135.28;5092961;27;48769;-71
2023/10/12 10:34:58;;;;;;;;;13.67;13.67;;;;;22.71;57.13;101112.34;5105756;27;45639;-72
2023/10/12 10:37:59;;;;;;;;;15.00;13.33;;;;;22.84;57.46;101137.78;5101160;27;45490;-71
2023/10/12 10:40:45;;;;;;;;;14.33;13.33;;;;;22.60;56.87;101094.03;5069487;27;45487;-75
2023/10/12 10:43:18;;;;;;;;;15.33;14.00;;;;;22.94;57.29;101133.56;5102635;27;46756;-71
2023/10/12 10:45:54;;;;;;;;;16.33;15.00;;;;;22.99;57.14;101132.91;5085439;27;45406;-70
2023/10/12 10:48:19;;;;;;;;;12.33;11.33;;;;;23.04;57.11;101139.38;5095994;27;45484;-72
2023/10/12 10:50:51;;;;;;;;;14.67;13.00;;;;;23.15;56.96;101140.53;5095344;27;45702;-71
2023/10/12 10:53:20;;;;;;;;;16.67;16.33;;;;;23.22;56.88;101137.78;5095555;27;47000;-73
2023/10/12 10:55:50;;;;;;;;;19.00;15.00;;;;;23.31;56.81;101139.22;5101228;27;45700;-72
2023/10/12 10:58:17;;;;;;;;;14.33;13.33;;;;;23.26;56.72;101134.44;5086605;27;45473;-71
2023/10/12 11:00:46;;;;;;;;;16.67;14.33;;;;;23.27;56.83;101119.81;5082826;27;45559;-70
2023/10/12 11:03:17;;;;;;;;;17.00;13.33;;;;;23.30;56.67;101132.94;5091474;27;47182;-71
2023/10/12 11:05:46;;;;;;;;;14.33;13.33;;;;;23.31;56.96;101122.94;5108327;27;45493;-70
2023/10/12 11:08:26;;;;;;;;;15.33;15.33;;;;;23.48;56.68;101128.66;5109104;27;45391;-74
2023/10/12 11:13:52;;;;;;;;;14.67;14.67;;;;;23.62;56.44;101130.25;5090356;27;45504;-72
2023/10/12 11:16:30;;;;;;;;;18.33;17.00;;;;;23.73;56.32;101121.41;5097073;27;45462;-71
2023/10/12 11:19:00;;;;;;;;;12.33;12.00;;;;;23.79;56.82;101117.78;5105694;27;45298;-71
2023/10/12 11:21:26;;;;;;;;;11.00;11.00;;;;;23.90;56.65;101117.06;5100290;27;45326;-71
2023/10/12 11:24:01;;;;;;;;;13.33;13.33;;;;;24.04;56.36;101114.25;5106826;27;45691;-77
2023/10/12 11:26:26;;;;;;;;;16.67;16.67;;;;;24.12;56.30;101109.34;5105455;27;45460;-72
2023/10/12 11:29:06;;;;;;;;;22.33;18.00;;;;;24.20;56.15;101113.63;5079071;27;45539;-72
2023/10/12 11:31:33;;;;;;;;;12.00;12.00;;;;;24.29;56.03;101109.63;5106515;27;45447;-73
2023/10/12 11:34:06;;;;;;;;;16.33;14.00;;;;;24.43;55.95;101115.75;5105431;27;46131;-73
2023/10/12 11:36:33;;;;;;;;;14.50;11.50;;;;;24.46;56.10;101107.97;5107042;27;45552;-72
2023/10/12 11:38:59;;;;;;;;;14.33;13.00;;;;;24.48;56.28;101103.13;5113087;27;45319;-70
2023/10/12 11:41:25;;;;;;;;;15.00;13.00;;;;;24.43;56.07;101092.13;5115245;27;45660;-71
2023/10/12 11:43:53;;;;;;;;;15.33;14.33;;;;;24.44;56.02;101074.75;5106966;27;46849;-71
2023/10/12 11:46:18;;;;;;;;;15.33;14.00;;;;;24.74;56.25;101112.84;5089455;27;45568;-72
2023/10/12 11:48:44;;;;;;;;;15.67;14.00;;;;;24.82;56.13;101103.53;5094072;27;45579;-71
2023/10/12 11:51:11;;;;;;;;;14.33;13.67;;;;;24.82;56.56;101081.78;5099461;27;45569;-72
2023/10/12 11:53:38;;;;;;;;;12.67;10.00;;;;;24.87;56.36;101080.06;5096020;27;46559;-72
2023/10/12 11:56:14;;;;;;;;;13.67;12.00;;;;;25.06;56.52;101093.66;5095429;27;45446;-72
2023/10/12 11:58:54;;;;;;;;;16.67;14.33;;;;;24.93;56.42;101061.97;5105813;27;45339;-72
2023/10/12 12:01:20;;;;;;;;;21.00;19.00;;;;;25.11;56.62;101093.78;5100575;27;45432;-71
2023/10/12 12:03:47;;;;;;;;;19.67;18.33;;;;;24.80;56.43;101059.44;5096245;27;46565;-71
2023/10/12 12:06:18;;;;;;;;;16.67;13.67;;;;;25.03;56.73;101100.38;5110497;27;45803;-71
2023/10/12 12:08:45;;;;;;;;;15.00;13.00;;;;;24.97;56.65;101095.81;5096679;27;45389;-71
2023/10/12 12:11:13;;;;;;;;;24.00;23.33;;;;;24.65;56.99;101053.59;5106868;27;45502;-72
2023/10/12 12:13:43;;;;;;;;;14.00;12.33;;;;;24.83;57.63;101089.75;5100201;27;46285;-71
2023/10/12 12:16:09;;;;;;;;;9.67;9.67;;;;;24.71;57.71;101075.25;5096063;27;45551;-73
2023/10/12 12:18:35;;;;;;;;;15.67;15.67;;;;;24.32;57.73;101019.50;5096525;27;45523;-73
2023/10/12 12:21:03;;;;;;;;;14.67;14.00;;;;;24.49;57.88;101055.03;5107227;27;45529;-70
2023/10/12 12:23:33;;;;;;;;;11.67;10.33;;;;;24.21;57.87;101022.94;5103725;27;46703;-71
2023/10/12 12:26:07;;;;;;;;;8.67;8.67;;;;;24.39;58.22;101057.44;5104262;27;45197;-73
2023/10/12 12:28:43;;;;;;;;;10.00;10.00;;;;;24.42;58.43;101076.84;5089553;27;45556;-71
2023/10/12 12:31:10;;;;;;;;;14.00;13.67;;;;;24.28;58.59;101059.03;5085883;27;45592;-71
2023/10/12 12:33:41;;;;;;;;;12.00;12.00;;;;;24.40;58.93;101078.97;5087771;27;47362;-72
2023/10/12 12:36:10;;;;;;;;;13.00;11.00;;;;;24.39;59.07;101098.22;5102131;27;45577;-71
2023/10/12 12:41:12;;;;;;;;;14.67;11.33;;;;;24.31;59.02;101093.09;5107024;27;46082;-73
2023/10/12 12:43:38;;;;;;;;;13.00;13.00;;;;;23.92;59.69;101032.66;5105089;27;45882;-70
2023/10/12 12:46:05;;;;;;;;;14.00;12.67;;;;;24.28;59.42;101094.34;5104367;27;45452;-71
2023/10/12 12:48:30;;;;;;;;;13.67;12.00;;;;;24.16;60.11;101096.97;5097913;27;45473;-71
2023/10/12 12:50:56;;;;;;;;;11.67;11.00;;;;;24.22;59.83;101098.78;5104498;27;45551;-71
2023/10/12 12:53:21;;;;;;;;;10.67;8.33;;;;;24.12;60.24;101090.31;5092144;27;46354;-71
2023/10/12 12:55:47;;;;;;;;;8.33;6.67;;;;;24.07;59.94;101084.75;5096278;27;45388;-73
2023/10/12 12:58:17;;;;;;;;;8.00;8.00;;;;;24.08;60.17;101086.41;5105131;27;45452;-74
2023/10/12 13:00:52;;;;;;;;;9.67;9.67;;;;;24.06;60.44;101079.53;5111493;27;45260;-71
2023/10/12 13:03:17;;;;;;;;;8.00;7.67;;;;;24.10;60.33;101080.75;5110339;27;46295;-72
2023/10/12 13:05:43;;;;;;;;;11.00;11.00;;;;;24.01;59.90;101055.75;5079626;27;45299;-73
2023/10/12 13:08:11;;;;;;;;;9.00;8.33;;;;;24.22;59.95;101090.63;5108212;27;45418;-71
2023/10/12 13:10:37;;;;;;;;;10.67;9.00;;;;;24.29;59.82;101093.31;5113917;27;45520;-71
2023/10/12 13:13:03;;;;;;;;;8.67;8.00;;;;;24.32;59.78;101109.16;5111586;27;46630;-70
2023/10/12 13:15:31;;;;;;;;;13.00;12.00;;;;;24.27;59.97;101095.41;5102330;27;45492;-71
2023/10/12 13:17:58;;;;;;;;;7.33;6.00;;;;;24.24;59.93;101074.13;5098397;27;45388;-72